Terminal Aerodrome Forecast
Issued by NWS Houston/Galveston, TX

Home | Current Version | Previous Version | Text Only | Print | Product List | Glossary On
Versions: 1 2 3 4 5 6 7 8 9 10 11 12 13 14 15 16 17 18 19 20 21 22 23 24 25 26 27 28 29 30 31 32 33 34 35
000
FTUS44 KHGX 290531
TAFGLS
TAF
KGLS 290531Z 2906/3006 35007KT 6SM BR OVC005
     FM291500 02007KT 6SM BR OVC007
     FM291800 06006KT P6SM BKN015
     FM300000 08006KT P6SM SCT250=

USA.gov is the U.S. government's official web portal to all federal, state and local government web resources and services.